createdAt,value
2018-02-23T00:02:28.852Z,2.75
2018-02-23T00:05:09.194Z,3.10
2018-02-23T00:07:57.298Z,2.95
2018-02-23T00:10:37.891Z,2.80
2018-02-23T00:13:18.085Z,3.55
2018-02-23T00:15:57.819Z,3.35
2018-02-23T00:18:39.410Z,3.28
2018-02-23T00:21:19.138Z,3.00
2018-02-23T00:23:59.644Z,2.90
2018-02-23T00:26:39.815Z,2.78
2018-02-23T00:29:18.618Z,3.05
2018-02-23T00:31:57.105Z,3.60
2018-02-23T00:34:51.864Z,3.55
2018-02-23T00:37:30.300Z,3.70
2018-02-23T00:40:09.845Z,3.05
2018-02-23T00:42:50.801Z,3.03
2018-02-23T00:45:29.365Z,2.60
2018-02-23T00:48:07.817Z,2.22
2018-02-23T00:50:46.467Z,2.30
2018-02-23T00:53:25.005Z,3.20
2018-02-23T00:56:03.695Z,2.70
2018-02-23T00:58:42.335Z,3.12
2018-02-23T01:01:21.096Z,2.10
2018-02-23T01:03:59.774Z,2.62
2018-02-23T01:06:38.377Z,2.78
2018-02-23T01:09:16.895Z,2.40
2018-02-23T01:11:55.729Z,2.17
2018-02-23T01:14:34.542Z,2.35
2018-02-23T01:17:15.610Z,2.78
2018-02-23T01:19:53.918Z,2.25
2018-02-23T01:22:33.455Z,2.45
2018-02-23T01:25:13.545Z,2.78
2018-02-23T01:27:52.156Z,2.80
2018-02-23T01:30:31.815Z,2.92
2018-02-23T01:33:10.750Z,2.40
2018-02-23T01:35:53.326Z,4.10
2018-02-23T01:38:33.073Z,4.72
2018-02-23T01:41:11.800Z,5.68
2018-02-23T01:43:53.286Z,5.90
2018-02-23T01:46:35.552Z,7.00
2018-02-23T01:49:15.362Z,6.65
2018-02-23T01:51:54.924Z,6.43
2018-02-23T01:54:36.616Z,6.37
2018-02-23T01:57:16.064Z,7.18
2018-02-23T01:59:55.737Z,7.18
2018-02-23T02:02:36.132Z,8.02
2018-02-23T02:05:14.641Z,7.03
2018-02-23T02:07:53.229Z,6.22
2018-02-23T02:10:32.678Z,6.65
2018-02-23T02:13:12.031Z,5.75
2018-02-23T02:15:51.352Z,6.80
2018-02-23T02:18:29.972Z,6.82
2018-02-23T02:21:09.297Z,6.53
2018-02-23T02:23:48.005Z,6.43
2018-02-23T02:26:27.502Z,6.85
2018-02-23T02:29:06.319Z,6.75
2018-02-23T02:31:47.593Z,6.65
2018-02-23T02:34:26.728Z,6.62
2018-02-23T02:37:06.408Z,7.32
2018-02-23T02:39:47.235Z,7.43
2018-02-23T02:42:26.912Z,11.00
2018-02-23T02:45:07.985Z,13.07
2018-02-23T02:47:46.260Z,13.60
2018-02-23T02:50:24.995Z,14.00
2018-02-23T02:53:06.902Z,13.65
2018-02-23T02:55:47.724Z,12.52
2018-02-23T02:58:26.413Z,11.85
2018-02-23T03:01:05.023Z,8.75
2018-02-23T03:03:43.725Z,9.30
2018-02-23T03:06:23.256Z,9.25
2018-02-23T03:09:04.958Z,9.50
2018-02-23T03:11:45.453Z,9.30
2018-02-23T03:14:24.110Z,9.30
2018-02-23T03:17:03.784Z,10.55
2018-02-23T03:19:43.221Z,11.68
2018-02-23T03:22:22.726Z,13.07
2018-02-23T03:25:04.064Z,13.32
2018-02-23T03:27:44.548Z,13.98
2018-02-23T03:30:23.264Z,13.55
2018-02-23T03:33:02.768Z,13.05
2018-02-23T03:35:41.601Z,15.60
2018-02-23T03:38:20.242Z,15.63
2018-02-23T03:41:00.000Z,16.20
2018-02-23T03:43:38.416Z,17.75
2018-02-23T03:46:17.080Z,16.67
2018-02-23T03:48:58.757Z,17.30
2018-02-23T03:51:37.263Z,16.87
2018-02-23T03:54:15.471Z,18.40
2018-02-23T03:59:36.984Z,15.45
2018-02-23T04:02:15.505Z,13.40
2018-02-23T04:04:57.560Z,14.00
2018-02-23T04:07:38.163Z,15.55
2018-02-23T04:10:18.941Z,9.15
2018-02-23T04:13:00.456Z,11.82
2018-02-23T04:15:39.195Z,11.40
2018-02-23T04:18:17.837Z,8.85
2018-02-23T04:20:57.460Z,8.02
2018-02-23T04:23:36.006Z,14.07
2018-02-23T04:26:16.463Z,12.25
2018-02-23T04:28:55.921Z,10.15
2018-02-23T04:31:34.461Z,7.90
2018-02-23T04:34:13.767Z,9.80
2018-02-23T04:36:52.691Z,8.48
2018-02-23T04:39:31.327Z,11.75
2018-02-23T04:42:13.236Z,8.80
2018-02-23T04:44:51.541Z,10.63
2018-02-23T04:47:30.252Z,11.50
2018-02-23T04:50:12.294Z,9.75
2018-02-23T04:52:50.912Z,8.70
2018-02-23T04:55:29.473Z,8.65
2018-02-23T04:58:07.404Z,8.10
2018-02-23T05:00:51.258Z,7.32
2018-02-23T05:03:29.453Z,7.55
2018-02-23T05:06:08.942Z,7.05
2018-02-23T05:08:47.513Z,7.00
2018-02-23T05:11:28.134Z,7.45
2018-02-23T05:14:07.783Z,9.05
2018-02-23T05:16:51.455Z,10.07
2018-02-23T05:19:31.820Z,8.43
2018-02-23T05:22:11.500Z,8.68
2018-02-23T05:24:50.098Z,8.02
2018-02-23T05:27:27.569Z,10.25
2018-02-23T05:30:05.157Z,9.82
2018-02-23T05:32:46.708Z,11.20
2018-02-23T05:35:26.231Z,8.85
2018-02-23T05:38:05.964Z,8.68
2018-02-23T05:40:44.451Z,8.50
2018-02-23T05:43:22.039Z,9.68
2018-02-23T05:46:01.481Z,9.77
2018-02-23T05:48:41.206Z,8.52
2018-02-23T05:51:19.946Z,9.93
2018-02-23T05:53:59.356Z,10.30
2018-02-23T05:56:41.139Z,11.05
2018-02-23T05:59:20.740Z,12.50
2018-02-23T06:01:58.489Z,12.75
2018-02-23T06:04:40.046Z,10.18
2018-02-23T06:07:20.584Z,12.50
2018-02-23T06:10:00.259Z,12.88
2018-02-23T06:12:38.804Z,10.80
2018-02-23T06:15:17.368Z,11.05
2018-02-23T06:18:16.908Z,14.32
2018-02-23T06:20:55.472Z,13.43
2018-02-23T06:23:33.885Z,18.15
2018-02-23T06:26:12.513Z,20.15
2018-02-23T06:28:52.035Z,17.33
2018-02-23T06:31:31.140Z,11.20
2018-02-23T06:34:11.197Z,9.35
2018-02-23T06:36:50.099Z,8.05
2018-02-23T06:39:29.699Z,8.95
2018-02-23T06:42:08.365Z,7.20
2018-02-23T06:44:48.169Z,7.30
2018-02-23T06:47:29.178Z,9.10
2018-02-23T06:50:07.644Z,7.60
2018-02-23T06:52:46.517Z,10.25
2018-02-23T06:55:25.032Z,10.70
2018-02-23T06:58:03.658Z,7.22
2018-02-23T07:00:44.066Z,12.18
2018-02-23T07:03:22.688Z,12.63
2018-02-23T07:06:03.081Z,10.25
2018-02-23T07:08:42.782Z,11.23
2018-02-23T07:11:21.456Z,15.00
2018-02-23T07:13:59.942Z,13.20
2018-02-23T07:16:38.532Z,9.25
2018-02-23T07:19:18.091Z,8.82
2018-02-23T07:21:56.618Z,9.23
2018-02-23T07:24:36.163Z,9.07
2018-02-23T07:27:15.656Z,8.80
2018-02-23T07:29:56.430Z,9.25
2018-02-23T07:32:36.051Z,10.63
2018-02-23T07:35:14.760Z,10.95
2018-02-23T07:37:53.209Z,9.85
2018-02-23T07:40:31.877Z,10.40
2018-02-23T07:43:09.420Z,9.95
2018-02-23T07:45:51.070Z,9.98
2018-02-23T07:48:29.595Z,8.63
2018-02-23T07:51:08.167Z,8.57
2018-02-23T07:53:49.915Z,8.30
2018-02-23T07:56:28.493Z,8.30
2018-02-23T07:59:12.102Z,7.95
2018-02-23T08:01:50.748Z,8.10
2018-02-23T08:04:29.339Z,8.05
2018-02-23T08:07:07.642Z,7.30
2018-02-23T08:09:46.204Z,8.30
2018-02-23T08:12:24.721Z,9.02
2018-02-23T08:15:03.441Z,7.55
2018-02-23T08:17:41.946Z,8.75
2018-02-23T08:20:21.397Z,8.00
2018-02-23T08:23:01.014Z,8.77
2018-02-23T08:25:39.637Z,8.80
2018-02-23T08:28:17.197Z,9.73
2018-02-23T08:30:56.214Z,9.88
2018-02-23T08:33:34.964Z,9.57
2018-02-23T08:36:18.600Z,9.77
2018-02-23T08:38:58.289Z,7.57
2018-02-23T08:41:41.010Z,10.07
2018-02-23T08:44:19.941Z,10.02
2018-02-23T08:46:58.789Z,9.80
2018-02-23T08:49:38.267Z,9.15
2018-02-23T08:52:17.845Z,9.98
2018-02-23T08:54:55.476Z,9.93
2018-02-23T08:57:35.096Z,9.90
2018-02-23T09:00:19.847Z,9.45
2018-02-23T09:02:58.357Z,9.90
2018-02-23T09:05:37.419Z,9.70
2018-02-23T09:08:18.581Z,10.73
2018-02-23T09:10:57.359Z,10.68
2018-02-23T09:13:36.023Z,12.57
2018-02-23T09:16:22.666Z,9.50
2018-02-23T09:21:46.357Z,8.75
2018-02-23T09:24:24.486Z,9.20
2018-02-23T09:27:02.920Z,9.00
2018-02-23T09:29:41.618Z,8.23
2018-02-23T09:35:41.208Z,8.05
2018-02-23T09:38:19.565Z,7.93
2018-02-23T09:40:58.194Z,8.20
2018-02-23T09:43:37.644Z,8.35
2018-02-23T09:46:16.314Z,9.15
2018-02-23T09:48:55.829Z,8.40
2018-02-23T09:51:38.938Z,8.93
2018-02-23T09:54:17.966Z,7.15
2018-02-23T09:56:59.472Z,8.82
2018-02-23T09:59:41.540Z,8.55
2018-02-23T10:02:21.518Z,8.70
2018-02-23T10:05:03.139Z,8.30
2018-02-23T10:07:43.652Z,8.90
2018-02-23T10:10:24.317Z,7.75
2018-02-23T10:13:02.726Z,8.90
2018-02-23T10:15:42.192Z,8.98
2018-02-23T10:18:21.673Z,9.75
2018-02-23T10:21:00.213Z,8.57
2018-02-23T10:23:38.663Z,8.75
2018-02-23T10:26:19.242Z,8.90
2018-02-23T10:28:57.728Z,8.50
2018-02-23T10:31:40.250Z,8.07
2018-02-23T10:34:19.802Z,6.93
2018-02-23T10:36:59.421Z,9.02
2018-02-23T10:39:40.937Z,8.48
2018-02-23T10:42:19.460Z,9.70
2018-02-23T10:44:59.963Z,8.98
2018-02-23T10:47:38.606Z,8.63
2018-02-23T10:50:17.157Z,8.80
2018-02-23T10:52:55.619Z,8.70
2018-02-23T10:55:34.185Z,7.70
2018-02-23T10:58:14.775Z,7.95
2018-02-23T11:00:54.451Z,7.72
2018-02-23T11:03:33.148Z,7.72
2018-02-23T11:06:12.791Z,7.62
2018-02-23T11:08:51.138Z,7.28
2018-02-23T11:11:29.734Z,6.75
2018-02-23T11:14:08.194Z,7.25
2018-02-23T11:16:48.778Z,7.12
2018-02-23T11:19:31.426Z,6.65
2018-02-23T11:22:11.101Z,7.30
2018-02-23T11:24:49.495Z,6.18
2018-02-23T11:27:29.036Z,7.68
2018-02-23T11:30:08.498Z,7.30
2018-02-23T11:32:47.216Z,16.67
2018-02-23T11:35:26.738Z,36.88
2018-02-23T11:38:08.283Z,8.93
2018-02-23T11:40:47.877Z,6.68
2018-02-23T11:43:32.361Z,6.93
2018-02-23T11:46:09.832Z,9.30
2018-02-23T11:48:48.167Z,8.20
2018-02-23T11:51:27.656Z,9.00
2018-02-23T11:54:06.182Z,9.10
2018-02-23T11:56:47.898Z,25.98
2018-02-23T11:59:27.393Z,6.00
2018-02-23T12:02:05.894Z,4.95
2018-02-23T12:04:45.438Z,5.53
2018-02-23T12:07:23.990Z,5.78
2018-02-23T12:10:02.518Z,5.78
2018-02-23T12:12:41.089Z,5.07
2018-02-23T12:15:19.761Z,5.90
2018-02-23T12:17:59.294Z,5.90
2018-02-23T12:20:37.822Z,5.80
2018-02-23T12:23:16.350Z,6.87
2018-02-23T12:25:56.000Z,8.52
2018-02-23T12:28:34.806Z,16.02
2018-02-23T12:31:15.557Z,13.23
2018-02-23T12:33:55.223Z,8.02
2018-02-23T12:36:35.874Z,10.00
2018-02-23T12:39:15.265Z,7.95
2018-02-23T12:41:53.712Z,9.10
2018-02-23T12:44:34.376Z,6.03
2018-02-23T12:47:12.892Z,5.90
2018-02-23T12:49:51.317Z,7.05
2018-02-23T12:52:31.872Z,6.47
2018-02-23T12:55:11.559Z,7.40
2018-02-23T12:57:52.143Z,6.15
2018-02-23T13:00:32.704Z,6.82
2018-02-23T13:03:14.166Z,7.25
2018-02-23T13:05:52.685Z,5.72
2018-02-23T13:08:32.124Z,5.72
2018-02-23T13:11:12.693Z,6.05
2018-02-23T13:13:57.218Z,6.70
2018-02-23T13:16:35.661Z,5.40
2018-02-23T13:19:14.126Z,6.18
2018-02-23T13:21:54.659Z,7.18
2018-02-23T13:24:33.452Z,5.55
2018-02-23T13:27:18.896Z,6.62
2018-02-23T13:30:00.513Z,6.05
2018-02-23T13:32:38.916Z,6.18
2018-02-23T13:35:18.546Z,5.78
2018-02-23T13:37:57.954Z,6.03
2018-02-23T13:40:36.550Z,6.50
2018-02-23T13:43:15.143Z,6.37
2018-02-23T13:45:55.559Z,6.78
2018-02-23T13:48:35.459Z,6.95
2018-02-23T13:51:15.803Z,6.62
2018-02-23T13:53:57.300Z,5.82
2018-02-23T13:56:36.358Z,5.65
2018-02-23T13:59:14.726Z,5.10
2018-02-23T14:01:55.375Z,6.55
2018-02-23T14:04:34.846Z,6.65
2018-02-23T14:07:19.325Z,5.82
2018-02-23T14:09:58.918Z,6.18
2018-02-23T14:12:38.459Z,6.30
2018-02-23T14:15:16.878Z,6.87
2018-02-23T14:17:57.302Z,5.90
2018-02-23T14:20:38.788Z,6.25
2018-02-23T14:23:18.276Z,6.40
2018-02-23T14:25:57.729Z,6.28
2018-02-23T14:28:37.292Z,6.15
2018-02-23T14:31:15.832Z,5.40
2018-02-23T14:33:54.359Z,6.18
2018-02-23T14:36:32.659Z,6.15
2018-02-23T14:39:12.282Z,5.82
2018-02-23T14:41:53.006Z,6.07
2018-02-23T14:44:30.503Z,5.90
2018-02-23T14:47:10.094Z,5.20
2018-02-23T14:50:03.239Z,5.35
2018-02-23T14:52:41.302Z,4.95
2018-02-23T14:55:19.707Z,5.47
2018-02-23T14:57:58.148Z,5.20
2018-02-23T15:00:36.672Z,6.12
2018-02-23T15:03:15.354Z,6.25
2018-02-23T15:05:55.795Z,17.30
2018-02-23T15:08:34.444Z,13.48
2018-02-23T15:11:12.929Z,15.45
2018-02-23T15:13:50.511Z,9.90
2018-02-23T15:16:30.025Z,22.87
2018-02-23T15:19:08.471Z,17.20
2018-02-23T15:21:48.936Z,17.15
2018-02-23T15:24:27.660Z,31.10
2018-02-23T15:27:06.022Z,59.00
2018-02-23T15:29:49.619Z,55.15
2018-02-23T15:32:36.158Z,47.17
2018-02-23T15:35:15.677Z,75.22
2018-02-23T15:37:54.216Z,93.53
2018-02-23T15:40:32.592Z,57.80
2018-02-23T15:43:11.152Z,30.73
2018-02-23T15:45:49.590Z,9.77
2018-02-23T15:48:37.071Z,6.60
2018-02-23T15:51:16.664Z,8.32
2018-02-23T15:53:55.822Z,21.65
2018-02-23T15:56:34.490Z,10.35
2018-02-23T15:59:12.841Z,5.05
2018-02-23T16:01:51.308Z,4.35
2018-02-23T16:04:33.020Z,5.53
2018-02-23T16:07:15.306Z,5.75
2018-02-23T16:09:58.810Z,8.75
2018-02-23T16:12:37.269Z,12.55
2018-02-23T16:15:16.903Z,15.05
2018-02-23T16:17:55.528Z,18.77
2018-02-23T16:20:39.197Z,17.55
2018-02-23T16:23:19.817Z,7.25
2018-02-23T16:25:58.245Z,5.18
2018-02-23T16:28:38.816Z,5.80
2018-02-23T16:31:17.435Z,6.10
2018-02-23T16:33:56.967Z,8.48
2018-02-23T16:36:39.572Z,5.07
2018-02-23T16:39:18.067Z,9.23
2018-02-23T16:42:00.000Z,7.72
2018-02-23T16:44:38.210Z,7.32
2018-02-23T16:47:16.617Z,5.25
2018-02-23T16:49:55.092Z,5.70
2018-02-23T16:52:34.496Z,5.43
2018-02-23T16:55:15.053Z,6.00
2018-02-23T16:57:53.510Z,7.30
2018-02-23T17:00:32.209Z,6.72
2018-02-23T17:03:10.639Z,5.70
2018-02-23T17:05:50.987Z,7.75
2018-02-23T17:08:30.419Z,7.85
2018-02-23T17:11:10.882Z,6.68
2018-02-23T17:13:56.500Z,6.87
2018-02-23T17:16:35.072Z,7.00
2018-02-23T17:19:13.556Z,7.15
2018-02-23T17:21:53.019Z,6.00
2018-02-23T17:24:34.478Z,6.40
2018-02-23T17:27:17.996Z,6.43
2018-02-23T17:29:58.628Z,7.15
2018-02-23T17:32:37.930Z,6.28
2018-02-23T17:35:15.402Z,6.60
2018-02-23T17:37:56.970Z,8.50
2018-02-23T17:40:35.558Z,7.20
2018-02-23T17:43:16.064Z,6.62
2018-02-23T17:45:54.580Z,7.43
2018-02-23T17:48:33.130Z,7.35
2018-02-23T17:51:13.399Z,6.93
2018-02-23T17:53:52.294Z,7.70
2018-02-23T17:56:30.939Z,7.60
2018-02-23T17:59:12.327Z,7.95
2018-02-23T18:01:51.697Z,7.10
2018-02-23T18:04:32.255Z,7.78
2018-02-23T18:07:14.447Z,6.47
2018-02-23T18:09:56.376Z,7.37
2018-02-23T18:12:37.990Z,7.60
2018-02-23T18:15:16.576Z,8.32
2018-02-23T18:17:56.313Z,8.00
2018-02-23T18:20:36.962Z,7.62
2018-02-23T18:23:15.241Z,7.70
2018-02-23T18:25:53.671Z,9.55
2018-02-23T18:28:33.180Z,7.55
2018-02-23T18:31:16.712Z,8.50
2018-02-23T18:33:54.233Z,7.45
2018-02-23T18:36:39.791Z,8.55
2018-02-23T18:39:19.284Z,7.75
2018-02-23T18:41:58.890Z,9.50
2018-02-23T18:44:39.345Z,8.23
2018-02-23T18:47:18.840Z,7.85
2018-02-23T18:49:57.107Z,9.00
2018-02-23T18:52:37.284Z,9.68
2018-02-23T18:55:14.795Z,9.25
2018-02-23T18:57:53.477Z,8.05
2018-02-23T19:00:33.978Z,7.62
2018-02-23T19:03:14.563Z,7.97
2018-02-23T19:05:56.230Z,7.72
2018-02-23T19:08:36.631Z,8.10
2018-02-23T19:11:18.146Z,8.35
2018-02-23T19:14:03.506Z,8.32
2018-02-23T19:16:42.054Z,10.02
2018-02-23T19:19:19.647Z,8.32
2018-02-23T19:21:58.361Z,10.07
2018-02-23T19:24:40.063Z,8.35
2018-02-23T19:27:20.390Z,8.70
2018-02-23T19:29:58.423Z,7.95
2018-02-23T19:32:37.924Z,9.75
2018-02-23T19:35:17.884Z,11.40
2018-02-23T19:37:56.611Z,7.62
2018-02-23T19:40:34.420Z,11.07
2018-02-23T19:43:12.987Z,11.95
2018-02-23T19:45:54.665Z,8.45
2018-02-23T19:48:34.240Z,12.27
2018-02-23T19:51:12.788Z,7.65
2018-02-23T19:53:54.196Z,9.63
2018-02-23T19:56:38.645Z,9.18
2018-02-23T19:59:19.548Z,7.78
2018-02-23T20:01:58.654Z,8.40
2018-02-23T20:04:38.010Z,8.18
2018-02-23T20:07:17.689Z,10.20
2018-02-23T20:09:56.253Z,7.55
2018-02-23T20:12:35.840Z,7.00
2018-02-23T20:15:16.702Z,8.20
2018-02-23T20:17:54.980Z,8.98
2018-02-23T20:20:34.190Z,7.78
2018-02-23T20:23:13.203Z,7.95
2018-02-23T20:25:51.853Z,7.00
2018-02-23T20:28:31.417Z,8.30
2018-02-23T20:31:09.906Z,6.72
2018-02-23T20:33:48.420Z,8.18
2018-02-23T20:36:27.966Z,7.93
2018-02-23T20:39:07.498Z,8.15
2018-02-23T20:41:47.046Z,7.28
2018-02-23T20:44:26.593Z,6.47
2018-02-23T20:47:06.272Z,6.95
2018-02-23T20:49:45.905Z,6.55
2018-02-23T20:52:24.487Z,11.10
2018-02-23T20:55:03.249Z,8.45
2018-02-23T20:57:41.071Z,7.80
2018-02-23T21:00:19.568Z,6.97
2018-02-23T21:02:59.315Z,5.50
2018-02-23T21:05:37.948Z,5.35
2018-02-23T21:08:16.628Z,5.28
2018-02-23T21:10:56.238Z,5.43
2018-02-23T21:13:34.906Z,6.35
2018-02-23T21:16:13.531Z,6.95
2018-02-23T21:18:52.114Z,5.57
2018-02-23T21:21:31.111Z,8.75
2018-02-23T21:24:09.234Z,6.50
2018-02-23T21:26:46.869Z,15.63
2018-02-23T21:29:25.370Z,10.32
2018-02-23T21:32:04.009Z,8.25
2018-02-23T21:34:42.424Z,13.23
2018-02-23T21:37:22.147Z,6.22
2018-02-23T21:40:01.822Z,6.22
2018-02-23T21:42:41.335Z,7.90
2018-02-23T21:45:19.738Z,9.15
2018-02-23T21:47:58.987Z,9.30
2018-02-23T21:50:37.708Z,11.93
2018-02-23T21:53:15.594Z,10.15
2018-02-23T21:55:54.953Z,7.87
2018-02-23T21:58:34.572Z,9.10
2018-02-23T22:01:13.523Z,7.47
2018-02-23T22:03:51.398Z,10.77
2018-02-23T22:06:29.553Z,7.65
2018-02-23T22:09:09.083Z,10.45
2018-02-23T22:11:49.923Z,7.57
2018-02-23T22:14:28.665Z,7.55
2018-02-23T22:17:06.873Z,17.25
2018-02-23T22:19:45.822Z,9.30
2018-02-23T22:22:25.427Z,7.85
2018-02-23T22:25:03.960Z,7.93
2018-02-23T22:27:42.641Z,8.52
2018-02-23T22:30:21.160Z,7.70
2018-02-23T22:32:59.880Z,24.52
2018-02-23T22:35:38.475Z,7.15
2018-02-23T22:38:17.149Z,8.50
2018-02-23T22:40:58.602Z,6.43
2018-02-23T22:43:36.761Z,8.30
2018-02-23T22:46:16.401Z,8.18
2018-02-23T22:48:56.028Z,8.52
2018-02-23T22:51:34.677Z,9.18
2018-02-23T22:54:13.208Z,11.73
2018-02-23T22:56:52.069Z,5.82
2018-02-23T22:59:29.690Z,6.37
2018-02-23T23:02:09.169Z,6.03
2018-02-23T23:04:48.954Z,4.85
2018-02-23T23:07:27.410Z,5.30
2018-02-23T23:10:06.058Z,7.65
2018-02-23T23:12:45.706Z,8.93
2018-02-23T23:15:24.100Z,6.28
2018-02-23T23:18:02.969Z,6.65
2018-02-23T23:20:42.171Z,6.22
2018-02-23T23:23:20.837Z,5.07
2018-02-23T23:26:00.240Z,6.57
2018-02-23T23:28:38.800Z,5.18
2018-02-23T23:31:17.384Z,6.10
2018-02-23T23:33:56.790Z,6.45
2018-02-23T23:36:35.423Z,5.25
2018-02-23T23:39:21.119Z,5.10
2018-02-23T23:41:59.628Z,6.20
2018-02-23T23:44:38.191Z,4.55
2018-02-23T23:47:16.746Z,5.90
2018-02-23T23:49:55.443Z,6.18
2018-02-23T23:52:34.046Z,4.97
2018-02-23T23:55:13.633Z,4.80
2018-02-23T23:57:51.312Z,7.37
